createdAt,value
2023-01-29T00:03:47.059Z,-0.59
2023-01-29T00:08:49.979Z,-0.42
2023-01-29T00:13:54.545Z,-0.58
2023-01-29T00:18:57.026Z,-0.48
2023-01-29T00:24:00.264Z,-0.52
2023-01-29T00:29:04.035Z,-0.58
2023-01-29T00:34:06.455Z,-0.58
2023-01-29T00:39:11.156Z,-0.69
2023-01-29T00:44:33.233Z,-0.98
2023-01-29T00:49:36.000Z,-0.74
2023-01-29T00:54:38.903Z,-0.79
2023-01-29T00:59:41.453Z,-0.77
2023-01-29T01:04:44.521Z,-0.76
2023-01-29T01:10:07.405Z,-0.89
2023-01-29T01:15:10.997Z,-0.96
2023-01-29T01:20:14.227Z,-1.09
2023-01-29T01:25:17.895Z,-1.00
2023-01-29T01:30:21.442Z,-1.32
2023-01-29T01:35:23.833Z,-1.02
2023-01-29T01:40:26.613Z,-0.94
2023-01-29T01:45:37.116Z,-1.05
2023-01-29T01:50:50.162Z,-1.19
2023-01-29T01:55:59.805Z,-1.10
2023-01-29T02:01:06.279Z,-1.14
2023-01-29T02:06:29.165Z,-1.20
2023-01-29T02:11:32.692Z,-1.33
2023-01-29T02:16:36.732Z,-1.17
2023-01-29T02:21:45.868Z,-1.08
2023-01-29T02:26:58.713Z,-1.17
2023-01-29T02:32:11.154Z,-1.06
2023-01-29T02:37:15.351Z,-1.16
2023-01-29T02:42:37.286Z,-1.26
2023-01-29T02:47:48.450Z,-1.23
2023-01-29T02:53:15.756Z,-1.16
2023-01-29T02:58:31.292Z,-1.02
2023-01-29T03:03:40.935Z,-1.01
2023-01-29T03:08:50.314Z,-0.92
2023-01-29T03:14:13.605Z,-1.22
2023-01-29T03:19:21.180Z,-1.19
2023-01-29T03:24:48.121Z,-1.23
2023-01-29T03:30:12.845Z,-1.12
2023-01-29T03:35:37.730Z,-0.84
2023-01-29T03:40:49.766Z,-0.66
2023-01-29T03:46:05.330Z,-0.62
2023-01-29T03:51:23.590Z,-0.72
2023-01-29T03:56:55.477Z,-0.74
2023-01-29T04:02:03.394Z,-0.92
2023-01-29T04:07:24.628Z,-0.73
2023-01-29T04:12:46.234Z,-0.67
2023-01-29T04:17:53.094Z,-0.66
2023-01-29T04:23:02.527Z,-0.60
2023-01-29T04:28:20.025Z,-0.61
2023-01-29T04:33:56.994Z,-0.60
2023-01-29T04:39:18.679Z,-0.77
2023-01-29T04:44:38.808Z,-0.89
2023-01-29T04:50:16.155Z,-0.85
2023-01-29T04:55:28.953Z,-0.88
2023-01-29T05:00:37.709Z,-1.02
2023-01-29T05:05:43.278Z,-1.07
2023-01-29T05:10:48.494Z,-0.88
2023-01-29T05:15:53.909Z,-1.01
2023-01-29T05:21:16.633Z,-0.87
2023-01-29T05:26:41.581Z,-0.74
2023-01-29T05:31:45.795Z,-0.56
2023-01-29T05:36:48.587Z,-0.47
2023-01-29T05:41:52.590Z,-0.48
2023-01-29T05:46:55.513Z,-0.28
2023-01-29T05:51:58.411Z,-0.23
2023-01-29T05:57:01.322Z,-0.23
2023-01-29T06:02:03.756Z,-0.23
2023-01-29T06:07:06.096Z,-0.11
2023-01-29T06:12:09.587Z,-0.04
2023-01-29T06:17:11.923Z,-0.14
2023-01-29T06:22:14.687Z,-0.16
2023-01-29T06:27:17.818Z,-0.22
2023-01-29T06:32:20.768Z,-0.31
2023-01-29T06:37:24.478Z,-0.35
2023-01-29T06:42:28.247Z,-0.23
2023-01-29T06:47:30.716Z,-0.30
2023-01-29T06:52:33.615Z,-0.21
2023-01-29T06:57:35.921Z,-0.03
2023-01-29T07:02:38.858Z,-0.03
2023-01-29T07:07:41.671Z,-0.03
2023-01-29T07:12:44.448Z,0.47
2023-01-29T07:18:01.634Z,0.55
2023-01-29T07:23:05.223Z,0.58
2023-01-29T07:28:07.983Z,0.85
2023-01-29T07:33:12.081Z,0.90
2023-01-29T07:38:14.428Z,1.29
2023-01-29T07:43:17.497Z,1.58
2023-01-29T07:48:20.580Z,1.65
2023-01-29T07:53:23.608Z,1.75
2023-01-29T07:58:26.494Z,2.03
2023-01-29T08:03:28.863Z,2.08
2023-01-29T08:08:31.116Z,2.23
2023-01-29T08:13:34.474Z,2.33
2023-01-29T08:18:37.970Z,2.32
2023-01-29T08:23:40.625Z,2.40
2023-01-29T08:28:43.448Z,2.66
2023-01-29T08:33:47.060Z,2.68
2023-01-29T08:38:49.619Z,2.42
2023-01-29T08:43:52.159Z,2.59
2023-01-29T08:48:55.572Z,2.45
2023-01-29T08:53:57.848Z,2.43
2023-01-29T08:59:00.599Z,2.64
2023-01-29T09:04:03.023Z,2.69
2023-01-29T09:09:06.173Z,2.74
2023-01-29T09:14:09.958Z,2.96
2023-01-29T09:19:13.596Z,2.74
2023-01-29T09:24:16.452Z,2.91
2023-01-29T09:29:18.902Z,3.06
2023-01-29T09:34:21.178Z,3.07
2023-01-29T09:39:23.601Z,3.10
2023-01-29T09:44:28.841Z,3.24
2023-01-29T09:49:43.972Z,3.27
2023-01-29T09:54:55.950Z,3.10
2023-01-29T09:59:59.437Z,3.13
2023-01-29T10:05:11.577Z,3.34
2023-01-29T10:10:38.898Z,3.16
2023-01-29T10:16:05.023Z,3.35
2023-01-29T10:21:29.046Z,3.54
2023-01-29T10:26:33.527Z,3.20
2023-01-29T10:31:40.865Z,3.45
2023-01-29T10:36:48.520Z,3.64
2023-01-29T10:42:20.279Z,3.59
2023-01-29T10:47:52.954Z,3.59
2023-01-29T10:53:29.657Z,3.60
2023-01-29T10:58:32.321Z,3.59
2023-01-29T11:03:34.827Z,3.73
2023-01-29T11:09:07.960Z,3.62
2023-01-29T11:14:21.279Z,3.88
2023-01-29T11:19:45.351Z,4.07
2023-01-29T11:25:16.583Z,3.93
2023-01-29T11:30:27.158Z,3.93
2023-01-29T11:35:30.830Z,3.92
2023-01-29T11:40:37.400Z,4.00
2023-01-29T11:45:40.691Z,3.80
2023-01-29T11:50:44.024Z,3.79
2023-01-29T11:55:50.850Z,3.97
2023-01-29T12:00:55.733Z,3.82
2023-01-29T12:06:03.383Z,3.72
2023-01-29T12:11:16.467Z,4.17
2023-01-29T12:16:27.979Z,4.36
2023-01-29T12:21:42.609Z,4.44
2023-01-29T12:26:51.097Z,4.50
2023-01-29T12:32:13.093Z,4.50
2023-01-29T12:37:24.259Z,4.36
2023-01-29T12:42:27.699Z,4.17
2023-01-29T12:47:39.025Z,4.03
2023-01-29T12:52:58.517Z,4.06
2023-01-29T12:58:04.823Z,4.12
2023-01-29T13:03:33.334Z,4.28
2023-01-29T13:08:41.606Z,4.25
2023-01-29T13:13:54.997Z,4.40
2023-01-29T13:19:01.257Z,4.36
2023-01-29T13:24:10.429Z,4.12
2023-01-29T13:29:31.181Z,4.19
2023-01-29T13:34:37.373Z,4.16
2023-01-29T13:39:50.905Z,3.93
2023-01-29T13:44:57.448Z,3.84
2023-01-29T13:50:11.374Z,3.48
2023-01-29T13:55:22.887Z,3.66
2023-01-29T14:00:34.444Z,3.69
2023-01-29T14:05:55.076Z,3.90
2023-01-29T14:11:16.081Z,4.06
2023-01-29T14:16:19.604Z,4.07
2023-01-29T14:21:32.531Z,3.62
2023-01-29T14:26:46.064Z,3.84
2023-01-29T14:32:13.650Z,3.82
2023-01-29T14:37:16.122Z,3.83
2023-01-29T14:42:24.723Z,3.83
2023-01-29T14:47:33.120Z,3.92
2023-01-29T14:52:44.503Z,3.56
2023-01-29T14:57:49.014Z,3.52
2023-01-29T15:03:03.019Z,3.59
2023-01-29T15:08:16.973Z,3.48
2023-01-29T15:13:56.280Z,3.50
2023-01-29T15:19:13.788Z,3.25
2023-01-29T15:24:16.379Z,3.25
2023-01-29T15:29:26.025Z,2.97
2023-01-29T15:34:28.699Z,2.93
2023-01-29T15:39:32.015Z,2.82
2023-01-29T15:44:35.185Z,2.51
2023-01-29T15:49:39.873Z,2.73
2023-01-29T15:54:42.369Z,2.53
2023-01-29T15:59:46.035Z,2.35
2023-01-29T16:04:48.521Z,2.23
2023-01-29T16:09:53.222Z,2.31
2023-01-29T16:14:56.312Z,2.28
2023-01-29T16:20:01.787Z,2.42
2023-01-29T16:25:11.678Z,2.55
2023-01-29T16:30:17.883Z,1.94
2023-01-29T16:35:20.899Z,2.23
2023-01-29T16:40:33.986Z,2.39
2023-01-29T16:45:36.649Z,2.19
2023-01-29T16:50:53.847Z,1.91
2023-01-29T16:56:04.546Z,2.25
2023-01-29T17:01:11.651Z,2.23
2023-01-29T17:06:21.655Z,2.23
2023-01-29T17:11:30.453Z,2.16
2023-01-29T17:16:49.215Z,2.35
2023-01-29T17:21:51.798Z,2.27
2023-01-29T17:26:54.749Z,1.86
2023-01-29T17:32:00.430Z,1.68
2023-01-29T17:37:03.144Z,1.36
2023-01-29T17:42:05.716Z,1.04
2023-01-29T17:47:14.157Z,0.94
2023-01-29T17:52:16.942Z,0.95
2023-01-29T17:57:19.504Z,0.89
2023-01-29T18:02:29.018Z,0.52
2023-01-29T18:07:32.661Z,0.63
2023-01-29T18:12:35.073Z,0.69
2023-01-29T18:17:38.613Z,0.42
2023-01-29T18:22:41.046Z,0.18
2023-01-29T18:27:43.610Z,0.02
2023-01-29T18:32:47.750Z,0.18
2023-01-29T18:37:51.575Z,0.12
2023-01-29T18:42:54.130Z,0.10
2023-01-29T18:47:56.975Z,0.36
2023-01-29T18:52:59.991Z,0.51
2023-01-29T18:58:26.957Z,0.80
2023-01-29T19:03:25.667Z,0.70
2023-01-29T19:08:28.735Z,0.44
2023-01-29T19:13:33.025Z,0.05
2023-01-29T19:18:35.673Z,-0.11
2023-01-29T19:23:38.373Z,-0.18
2023-01-29T19:28:42.124Z,-0.07
2023-01-29T19:33:44.520Z,-0.18
2023-01-29T19:38:47.120Z,-0.14
2023-01-29T19:43:50.089Z,-0.29
2023-01-29T19:48:56.683Z,-0.15
2023-01-29T19:53:59.163Z,0.01
2023-01-29T19:59:01.852Z,0.13
2023-01-29T20:04:04.918Z,0.04
2023-01-29T20:09:07.702Z,0.18
2023-01-29T20:14:11.421Z,-0.09
2023-01-29T20:19:15.883Z,0.18
2023-01-29T20:24:18.250Z,0.14
2023-01-29T20:29:20.716Z,-0.21
2023-01-29T20:34:24.259Z,-0.92
2023-01-29T20:39:27.958Z,-0.74
2023-01-29T20:44:31.034Z,-0.89
2023-01-29T20:49:34.169Z,-0.84
2023-01-29T20:54:37.440Z,-0.86
2023-01-29T20:59:39.831Z,-0.90
2023-01-29T21:04:44.316Z,-0.76
2023-01-29T21:09:47.471Z,-0.33
2023-01-29T21:14:51.875Z,-0.22
2023-01-29T21:19:54.691Z,-0.46
2023-01-29T21:24:57.706Z,-0.53
2023-01-29T21:30:01.793Z,-0.31
2023-01-29T21:35:07.392Z,-0.48
2023-01-29T21:40:10.792Z,-0.68
2023-01-29T21:45:13.853Z,-0.91
2023-01-29T21:50:17.305Z,-0.92
2023-01-29T21:55:20.513Z,-1.24
2023-01-29T22:00:22.867Z,-0.84
2023-01-29T22:05:26.708Z,-0.55
2023-01-29T22:10:29.176Z,-0.60
2023-01-29T22:15:32.719Z,-0.51
2023-01-29T22:20:37.216Z,-0.68
2023-01-29T22:25:40.025Z,-0.85
2023-01-29T22:30:44.168Z,-0.78
2023-01-29T22:35:46.729Z,-0.73
2023-01-29T22:40:50.741Z,-0.64
2023-01-29T22:45:53.314Z,-0.83
2023-01-29T22:51:09.724Z,-1.35
2023-01-29T22:56:12.418Z,-1.81
2023-01-29T23:01:17.707Z,-1.69
2023-01-29T23:06:21.891Z,-1.47
2023-01-29T23:11:25.352Z,-1.09
2023-01-29T23:16:29.217Z,-1.12
2023-01-29T23:21:31.736Z,-0.97
2023-01-29T23:26:52.673Z,-1.20
2023-01-29T23:31:55.937Z,-1.68
2023-01-29T23:36:59.165Z,-1.59
2023-01-29T23:42:02.544Z,-1.46
2023-01-29T23:47:05.596Z,-1.24
2023-01-29T23:52:09.102Z,-1.69
2023-01-29T23:57:11.482Z,-1.87
